Antelope, California
Current Conditions -  °F | °C
As of 5:45 AM on Saturday 22 Nov 2014 (Local Time) from KMHR Reporting Station
Overcast Overcast  
Wind Chill: 54°   Ceiling: 3000
Heat Index: 54°   Visibility: 8mi
Dew Point: 54°   Wind: 20mph
Humidity: 100%   Direction: 150°SSE
Pressure: 30.06"   Gusts: 26mph
Location:  38.72°N, 121.37°W
Report Text: KMHR 221345Z 15017G23KT 8SM OVC030 12/12 A3006
Loading
Personal Weather Stations






























Interactive Weather Map New forecast layout! Learn more

10-Day Weather Forecast

Advertisements
Track Severe Weather on mobile